createdAt,value
2022-12-04T00:00:24.784Z,20.80
2022-12-04T00:03:13.597Z,21.27
2022-12-04T00:06:08.777Z,22.27
2022-12-04T00:09:03.443Z,21.00
2022-12-04T00:11:53.384Z,21.70
2022-12-04T00:15:16.517Z,22.93
2022-12-04T00:17:50.632Z,21.43
2022-12-04T00:20:42.675Z,21.40
2022-12-04T00:23:32.149Z,20.60
2022-12-04T00:26:33.518Z,22.10
2022-12-04T00:29:23.535Z,20.80
2022-12-04T00:32:12.128Z,20.30
2022-12-04T00:35:00.732Z,21.43
2022-12-04T00:37:53.154Z,22.67
2022-12-04T00:40:42.826Z,20.97
2022-12-04T00:43:32.087Z,19.37
2022-12-04T00:46:25.183Z,21.30
2022-12-04T00:49:21.646Z,20.30
2022-12-04T00:52:13.202Z,19.10
2022-12-04T00:55:03.452Z,21.40
2022-12-04T00:57:55.774Z,20.60
2022-12-04T01:00:52.135Z,20.77
2022-12-04T01:03:45.671Z,20.40
2022-12-04T01:06:37.278Z,20.13
2022-12-04T01:09:27.079Z,19.30
2022-12-04T01:12:20.856Z,21.07
2022-12-04T01:15:14.776Z,21.73
2022-12-04T01:18:03.308Z,20.30
2022-12-04T01:20:53.650Z,20.60
2022-12-04T01:23:42.204Z,20.10
2022-12-04T01:26:33.363Z,21.10
2022-12-04T01:29:21.942Z,20.40
2022-12-04T01:32:10.651Z,21.30
2022-12-04T01:35:03.943Z,20.63
2022-12-04T01:37:55.991Z,21.77
2022-12-04T01:40:47.061Z,22.40
2022-12-04T01:43:39.380Z,21.83
2022-12-04T01:46:29.313Z,20.67
2022-12-04T01:49:24.071Z,20.50
2022-12-04T01:52:15.556Z,20.10
2022-12-04T01:55:08.211Z,21.57
2022-12-04T01:57:58.652Z,21.40
2022-12-04T02:00:51.495Z,21.57
2022-12-04T02:03:44.829Z,22.03
2022-12-04T02:06:33.421Z,21.17
2022-12-04T02:09:26.732Z,23.90
2022-12-04T02:12:21.207Z,22.70
2022-12-04T02:15:25.770Z,22.20
2022-12-04T02:18:21.331Z,21.17
2022-12-04T02:21:13.813Z,20.47
2022-12-04T02:24:29.758Z,20.67
2022-12-04T02:27:31.825Z,21.00
2022-12-04T02:30:25.938Z,21.53
2022-12-04T02:33:22.852Z,20.40
2022-12-04T02:36:18.988Z,20.47
2022-12-04T02:39:13.344Z,21.30
2022-12-04T02:42:09.462Z,21.10
2022-12-04T02:44:59.564Z,19.63
2022-12-04T02:47:53.785Z,21.10
2022-12-04T02:50:48.337Z,20.50
2022-12-04T02:53:39.030Z,20.90
2022-12-04T02:56:32.259Z,22.90
2022-12-04T02:59:22.631Z,21.10
2022-12-04T03:02:14.591Z,20.53
2022-12-04T03:05:06.376Z,21.53
2022-12-04T03:07:56.684Z,21.10
2022-12-04T03:10:48.560Z,21.17
2022-12-04T03:13:39.526Z,21.10
2022-12-04T03:16:32.005Z,21.17
2022-12-04T03:19:23.328Z,19.67
2022-12-04T03:22:19.818Z,20.97
2022-12-04T03:25:13.169Z,20.13
2022-12-04T03:28:04.081Z,20.10
2022-12-04T03:30:59.088Z,22.97
2022-12-04T03:33:51.819Z,22.50
2022-12-04T03:36:45.435Z,20.67
2022-12-04T03:39:45.776Z,20.03
2022-12-04T03:42:40.092Z,22.37
2022-12-04T03:45:30.602Z,20.17
2022-12-04T03:48:24.518Z,20.37
2022-12-04T03:51:25.960Z,21.07
2022-12-04T03:54:32.565Z,20.67
2022-12-04T03:57:29.532Z,20.30
2022-12-04T04:00:19.363Z,22.03
2022-12-04T04:03:15.621Z,21.67
2022-12-04T04:06:07.953Z,20.23
2022-12-04T04:08:59.283Z,20.87
2022-12-04T04:11:54.341Z,19.43
2022-12-04T04:15:06.996Z,21.50
2022-12-04T04:18:13.478Z,20.43
2022-12-04T04:21:22.831Z,22.43
2022-12-04T04:24:17.850Z,19.63
2022-12-04T04:27:09.187Z,20.73
2022-12-04T04:30:02.349Z,20.73
2022-12-04T04:32:56.868Z,20.10
2022-12-04T04:35:49.167Z,20.80
2022-12-04T04:38:41.803Z,21.13
2022-12-04T04:41:39.518Z,19.80
2022-12-04T04:44:30.299Z,20.83
2022-12-04T04:47:30.844Z,20.50
2022-12-04T04:50:19.803Z,21.20
2022-12-04T04:53:10.319Z,20.43
2022-12-04T04:56:01.855Z,21.50
2022-12-04T04:58:53.621Z,22.43
2022-12-04T05:01:47.030Z,21.37
2022-12-04T05:04:42.155Z,20.90
2022-12-04T05:07:30.770Z,19.07
2022-12-04T05:10:21.070Z,20.90
2022-12-04T05:13:15.243Z,21.03
2022-12-04T05:16:06.438Z,21.80
2022-12-04T05:19:18.474Z,22.37
2022-12-04T05:22:09.537Z,20.77
2022-12-04T05:25:01.778Z,20.93
2022-12-04T05:27:50.414Z,21.13
2022-12-04T05:30:41.507Z,21.80
2022-12-04T05:33:35.056Z,22.37
2022-12-04T05:36:26.521Z,19.60
2022-12-04T05:39:16.510Z,22.07
2022-12-04T05:42:09.310Z,20.90
2022-12-04T05:45:01.614Z,20.80
2022-12-04T05:47:52.938Z,21.10
2022-12-04T05:50:44.213Z,21.60
2022-12-04T05:53:32.766Z,20.93
2022-12-04T05:56:26.127Z,21.67
2022-12-04T05:59:15.083Z,20.20
2022-12-04T06:02:05.031Z,21.70
2022-12-04T06:04:53.680Z,20.90
2022-12-04T06:07:42.262Z,21.50
2022-12-04T06:10:30.974Z,22.77
2022-12-04T06:13:25.773Z,22.20
2022-12-04T06:16:16.387Z,22.50
2022-12-04T06:19:06.276Z,21.10
2022-12-04T06:21:55.871Z,23.00
2022-12-04T06:24:49.475Z,22.60
2022-12-04T06:27:46.462Z,21.90
2022-12-04T06:30:39.652Z,22.23
2022-12-04T06:33:28.237Z,22.33
2022-12-04T06:36:21.039Z,21.57
2022-12-04T06:39:15.554Z,23.83
2022-12-04T06:42:11.577Z,23.03
2022-12-04T06:45:05.277Z,22.50
2022-12-04T06:48:02.218Z,22.47
2022-12-04T06:50:59.482Z,21.93
2022-12-04T06:53:48.493Z,21.43
2022-12-04T06:56:38.305Z,22.10
2022-12-04T06:59:30.054Z,22.07
2022-12-04T07:02:18.693Z,21.97
2022-12-04T07:05:11.364Z,22.20
2022-12-04T07:08:00.217Z,23.90
2022-12-04T07:10:57.438Z,22.50
2022-12-04T07:13:50.738Z,23.50
2022-12-04T07:16:42.035Z,25.20
2022-12-04T07:19:31.042Z,22.40
2022-12-04T07:22:20.996Z,22.77
2022-12-04T07:25:09.941Z,22.47
2022-12-04T07:27:58.589Z,21.93
2022-12-04T07:30:47.194Z,23.90
2022-12-04T07:33:36.097Z,21.63
2022-12-04T07:36:25.201Z,23.80
2022-12-04T07:39:15.126Z,23.30
2022-12-04T07:42:03.672Z,22.13
2022-12-04T07:44:52.282Z,23.53
2022-12-04T07:47:40.903Z,23.60
2022-12-04T07:50:29.534Z,23.63
2022-12-04T07:53:18.198Z,23.40
2022-12-04T07:56:11.587Z,21.23
2022-12-04T07:59:00.485Z,23.70
2022-12-04T08:01:49.178Z,23.57
2022-12-04T08:04:38.877Z,23.13
2022-12-04T08:07:27.579Z,25.90
2022-12-04T08:10:19.012Z,23.43
2022-12-04T08:13:11.750Z,23.07
2022-12-04T08:16:02.876Z,22.73
2022-12-04T08:18:52.720Z,23.53
2022-12-04T08:21:41.357Z,24.60
2022-12-04T08:24:30.010Z,25.13
2022-12-04T08:27:18.831Z,23.50
2022-12-04T08:30:09.939Z,23.40
2022-12-04T08:32:58.596Z,23.00
2022-12-04T08:35:47.240Z,24.73
2022-12-04T08:38:35.802Z,23.10
2022-12-04T08:41:26.062Z,24.60
2022-12-04T08:44:17.157Z,22.63
2022-12-04T08:47:07.137Z,24.03
2022-12-04T08:49:56.003Z,25.97
2022-12-04T08:52:44.708Z,23.90
2022-12-04T08:55:33.287Z,24.47
2022-12-04T08:58:21.953Z,23.00
2022-12-04T09:01:12.182Z,24.60
2022-12-04T09:04:02.465Z,24.67
2022-12-04T09:06:51.125Z,23.60
2022-12-04T09:09:43.507Z,24.37
2022-12-04T09:12:35.249Z,24.13
2022-12-04T09:15:24.172Z,23.43
2022-12-04T09:18:12.791Z,25.57
2022-12-04T09:21:03.659Z,24.37
2022-12-04T09:23:52.279Z,24.00
2022-12-04T09:26:40.913Z,21.67
2022-12-04T09:29:29.453Z,22.43
2022-12-04T09:32:18.168Z,22.03
2022-12-04T09:35:07.627Z,23.10
2022-12-04T09:37:59.103Z,23.33
2022-12-04T09:40:51.969Z,22.60
2022-12-04T09:43:44.013Z,23.37
2022-12-04T09:46:34.474Z,24.50
2022-12-04T09:49:25.018Z,23.50
2022-12-04T09:52:22.201Z,21.57
2022-12-04T09:55:16.375Z,22.00
2022-12-04T09:58:07.004Z,22.43
2022-12-04T10:00:56.514Z,22.70
2022-12-04T10:03:45.240Z,23.23
2022-12-04T10:06:39.388Z,22.70
2022-12-04T10:09:32.755Z,23.43
2022-12-04T10:12:24.636Z,23.10
2022-12-04T10:15:15.960Z,21.87
2022-12-04T10:18:15.646Z,21.27
2022-12-04T10:21:11.375Z,22.70
2022-12-04T10:24:06.751Z,23.67
2022-12-04T10:26:56.764Z,21.37
2022-12-04T10:29:49.405Z,24.53
2022-12-04T10:32:38.192Z,20.47
2022-12-04T10:35:29.416Z,22.87
2022-12-04T10:38:25.344Z,21.40
2022-12-04T10:41:17.092Z,22.30
2022-12-04T10:44:05.819Z,22.10
2022-12-04T10:46:57.737Z,21.70
2022-12-04T10:49:46.470Z,21.90
2022-12-04T10:52:35.119Z,23.23
2022-12-04T10:55:33.496Z,23.63
2022-12-04T10:58:22.454Z,22.00
2022-12-04T11:01:15.989Z,21.33
2022-12-04T11:04:09.071Z,21.30
2022-12-04T11:07:03.215Z,20.87
2022-12-04T11:10:03.146Z,20.53
2022-12-04T11:12:56.064Z,22.70
2022-12-04T11:15:48.565Z,22.53
2022-12-04T11:18:47.912Z,22.20
2022-12-04T11:21:40.689Z,22.53
2022-12-04T11:24:32.724Z,22.60
2022-12-04T11:27:25.528Z,21.57
2022-12-04T11:30:16.058Z,21.30
2022-12-04T11:33:05.998Z,21.13
2022-12-04T11:35:57.148Z,21.73
2022-12-04T11:38:50.003Z,19.70
2022-12-04T11:41:40.684Z,21.60
2022-12-04T11:44:31.162Z,21.60
2022-12-04T11:47:22.389Z,22.30
2022-12-04T11:50:15.667Z,21.57
2022-12-04T11:53:07.715Z,21.83
2022-12-04T11:56:16.455Z,20.20
2022-12-04T11:59:20.498Z,20.17
2022-12-04T12:02:22.021Z,21.60
2022-12-04T12:05:18.549Z,21.17
2022-12-04T12:08:11.111Z,21.77
2022-12-04T12:11:05.422Z,20.73
2022-12-04T12:13:59.778Z,21.50
2022-12-04T12:19:57.360Z,21.20
2022-12-04T12:22:57.293Z,21.53
2022-12-04T12:25:52.339Z,21.53
2022-12-04T12:28:52.580Z,21.80
2022-12-04T12:32:00.206Z,21.20
2022-12-04T12:34:49.385Z,20.70
2022-12-04T12:37:43.142Z,21.20
2022-12-04T12:40:34.169Z,21.67
2022-12-04T12:43:30.205Z,20.07
2022-12-04T12:46:22.770Z,20.70
2022-12-04T12:49:15.028Z,19.67
2022-12-04T12:52:07.911Z,19.20
2022-12-04T12:54:57.778Z,18.30
2022-12-04T12:57:48.303Z,19.67
2022-12-04T13:00:39.563Z,19.60
2022-12-04T13:03:30.987Z,19.90
2022-12-04T13:06:22.602Z,19.90
2022-12-04T13:09:18.366Z,19.63
2022-12-04T13:12:10.799Z,19.63
2022-12-04T13:14:59.375Z,19.60
2022-12-04T13:17:49.764Z,18.60
2022-12-04T13:20:43.782Z,18.30
2022-12-04T13:23:43.571Z,20.00
2022-12-04T13:26:44.861Z,19.40
2022-12-04T13:29:43.021Z,18.40
2022-12-04T13:32:40.103Z,21.33
2022-12-04T13:35:36.451Z,19.50
2022-12-04T13:38:28.246Z,19.10
2022-12-04T13:41:19.942Z,17.90
2022-12-04T13:44:15.239Z,17.50
2022-12-04T13:47:05.160Z,17.83
2022-12-04T13:49:53.727Z,17.10
2022-12-04T13:52:42.958Z,17.00
2022-12-04T13:55:33.215Z,17.63
2022-12-04T13:58:28.343Z,19.00
2022-12-04T14:01:26.363Z,18.40
2022-12-04T14:04:24.970Z,17.60
2022-12-04T14:07:23.953Z,16.50
2022-12-04T14:10:27.386Z,17.17
2022-12-04T14:13:20.667Z,20.00
2022-12-04T14:16:17.649Z,19.60
2022-12-04T14:19:06.913Z,18.77
2022-12-04T14:21:55.781Z,17.33
2022-12-04T14:24:44.326Z,16.60
2022-12-04T14:27:34.864Z,18.23
2022-12-04T14:30:24.829Z,18.40
2022-12-04T14:33:19.000Z,18.00
2022-12-04T14:36:14.148Z,19.57
2022-12-04T14:39:10.712Z,18.10
2022-12-04T14:42:06.603Z,17.97
2022-12-04T14:44:56.703Z,19.60
2022-12-04T14:47:50.710Z,20.87
2022-12-04T14:50:44.860Z,19.80
2022-12-04T14:53:37.642Z,19.90
2022-12-04T14:56:30.555Z,19.33
2022-12-04T14:59:20.090Z,19.00
2022-12-04T15:02:12.881Z,19.57
2022-12-04T15:05:01.995Z,20.63
2022-12-04T15:07:52.711Z,21.00
2022-12-04T15:10:59.480Z,21.17
2022-12-04T15:13:48.116Z,21.83
2022-12-04T15:16:36.692Z,19.90
2022-12-04T15:19:25.274Z,20.73
2022-12-04T15:22:16.743Z,23.50
2022-12-04T15:25:07.214Z,21.07
2022-12-04T15:28:01.403Z,20.30
2022-12-04T15:30:50.689Z,20.93
2022-12-04T15:33:39.872Z,21.93
2022-12-04T15:36:32.723Z,21.13
2022-12-04T15:39:23.114Z,22.13
2022-12-04T15:42:18.861Z,20.70
2022-12-04T15:45:23.223Z,20.40
2022-12-04T15:48:12.940Z,20.90
2022-12-04T15:51:03.118Z,20.57
2022-12-04T15:53:51.865Z,21.90
2022-12-04T15:56:40.458Z,21.43
2022-12-04T15:59:31.850Z,20.57
2022-12-04T16:02:25.163Z,19.67
2022-12-04T16:05:14.320Z,19.70
2022-12-04T16:08:03.868Z,20.77
2022-12-04T16:10:59.580Z,19.67
2022-12-04T16:13:51.671Z,19.73
2022-12-04T16:16:43.633Z,18.87
2022-12-04T16:19:33.978Z,19.67
2022-12-04T16:22:23.677Z,19.47
2022-12-04T16:25:12.960Z,20.63
2022-12-04T16:28:01.708Z,21.30
2022-12-04T16:30:54.842Z,19.80
2022-12-04T16:33:44.872Z,18.67
2022-12-04T16:36:33.486Z,19.53
2022-12-04T16:39:22.055Z,20.83
2022-12-04T16:42:15.515Z,21.17
2022-12-04T16:45:04.385Z,18.93
2022-12-04T16:47:53.084Z,19.20
2022-12-04T16:50:43.322Z,20.47
2022-12-04T16:53:54.447Z,21.90
2022-12-04T16:56:43.259Z,21.70
2022-12-04T16:59:31.785Z,21.77
2022-12-04T17:02:24.006Z,21.27
2022-12-04T17:05:19.730Z,20.00
2022-12-04T17:08:09.805Z,19.60
2022-12-04T17:10:58.407Z,20.73
2022-12-04T17:13:47.183Z,21.30
2022-12-04T17:16:35.962Z,22.80
2022-12-04T17:19:24.674Z,22.73
2022-12-04T17:22:14.150Z,21.77
2022-12-04T17:25:04.101Z,22.20
2022-12-04T17:27:52.679Z,20.30
2022-12-04T17:30:41.235Z,21.60
2022-12-04T17:33:29.934Z,22.40
2022-12-04T17:36:19.562Z,20.43
2022-12-04T17:39:11.453Z,18.83
2022-12-04T17:42:01.383Z,20.77
2022-12-04T17:44:49.932Z,20.60
2022-12-04T17:47:41.638Z,18.97
2022-12-04T17:50:30.209Z,18.50
2022-12-04T17:53:20.399Z,19.30
2022-12-04T17:56:09.914Z,21.40
2022-12-04T17:58:59.902Z,20.23
2022-12-04T18:01:49.587Z,19.90
2022-12-04T18:04:38.282Z,20.30
2022-12-04T18:07:26.919Z,17.40
2022-12-04T18:10:15.518Z,16.97
2022-12-04T18:13:04.128Z,18.77
2022-12-04T18:15:56.828Z,17.90
2022-12-04T18:18:46.955Z,17.60
2022-12-04T18:21:35.792Z,17.63
2022-12-04T18:24:25.470Z,17.77
2022-12-04T18:27:14.347Z,16.43
2022-12-04T18:30:07.195Z,16.13
2022-12-04T18:32:58.227Z,17.90
2022-12-04T18:35:54.430Z,17.93
2022-12-04T18:38:46.032Z,16.50
2022-12-04T18:41:34.687Z,16.53
2022-12-04T18:44:25.063Z,18.00
2022-12-04T18:47:17.431Z,16.60
2022-12-04T18:50:11.083Z,17.70
2022-12-04T18:53:02.857Z,16.97
2022-12-04T18:55:51.409Z,17.93
2022-12-04T18:58:39.999Z,17.00
2022-12-04T19:01:28.993Z,18.37
2022-12-04T19:04:22.341Z,18.33
2022-12-04T19:07:12.428Z,18.40
2022-12-04T19:10:16.338Z,18.60
2022-12-04T19:13:05.051Z,17.90
2022-12-04T19:15:53.706Z,18.67
2022-12-04T19:18:44.599Z,17.43
2022-12-04T19:21:33.409Z,20.00
2022-12-04T19:24:23.401Z,18.77
2022-12-04T19:27:12.058Z,18.20
2022-12-04T19:30:00.940Z,20.30
2022-12-04T19:32:49.608Z,18.33
2022-12-04T19:35:38.233Z,19.63
2022-12-04T19:38:27.169Z,17.73
2022-12-04T19:41:18.362Z,17.83
2022-12-04T19:44:32.452Z,18.53
2022-12-04T19:47:15.666Z,18.40
2022-12-04T19:50:04.592Z,18.87
2022-12-04T19:52:55.335Z,17.80
2022-12-04T19:55:43.936Z,18.30
2022-12-04T19:58:35.327Z,17.33
2022-12-04T20:01:26.672Z,17.17
2022-12-04T20:04:15.548Z,18.07
2022-12-04T20:07:04.115Z,17.37
2022-12-04T20:09:52.937Z,18.70
2022-12-04T20:12:41.515Z,18.13
2022-12-04T20:15:32.880Z,17.20
2022-12-04T20:18:21.406Z,19.00
2022-12-04T20:21:11.840Z,18.07
2022-12-04T20:24:01.894Z,18.30
2022-12-04T20:26:50.749Z,18.10
2022-12-04T20:29:39.306Z,18.80
2022-12-04T20:32:32.692Z,20.80
2022-12-04T20:35:26.591Z,17.97
2022-12-04T20:38:17.092Z,19.27
2022-12-04T20:41:05.673Z,19.97
2022-12-04T20:43:56.807Z,19.43
2022-12-04T20:46:45.507Z,17.80
2022-12-04T20:49:35.595Z,19.03
2022-12-04T20:52:24.171Z,17.90
2022-12-04T20:55:15.757Z,19.10
2022-12-04T20:58:04.353Z,19.53
2022-12-04T21:00:54.092Z,18.00
2022-12-04T21:03:44.162Z,18.37
2022-12-04T21:06:40.007Z,16.83
2022-12-04T21:09:30.799Z,18.23
2022-12-04T21:12:42.883Z,17.60
2022-12-04T21:15:51.653Z,17.43
2022-12-04T21:18:40.343Z,18.67
2022-12-04T21:21:31.054Z,18.57
2022-12-04T21:24:26.715Z,18.80
2022-12-04T21:27:25.738Z,18.10
2022-12-04T21:30:14.834Z,18.63
2022-12-04T21:33:05.161Z,19.80
2022-12-04T21:35:53.662Z,20.23
2022-12-04T21:38:46.392Z,19.97
2022-12-04T21:41:54.098Z,20.17
2022-12-04T21:44:44.560Z,20.50
2022-12-04T21:47:35.157Z,19.97
2022-12-04T21:50:23.911Z,19.43
2022-12-04T21:53:12.496Z,19.57
2022-12-04T21:56:03.751Z,18.93
2022-12-04T21:59:03.935Z,21.20
2022-12-04T22:01:53.087Z,19.77
2022-12-04T22:04:44.177Z,20.90
2022-12-04T22:07:32.896Z,20.10
2022-12-04T22:10:21.502Z,19.80
2022-12-04T22:13:10.318Z,19.20
2022-12-04T22:16:03.376Z,19.93
2022-12-04T22:18:55.183Z,19.00
2022-12-04T22:21:43.728Z,19.07
2022-12-04T22:24:35.058Z,18.93
2022-12-04T22:27:26.348Z,18.30
2022-12-04T22:30:22.399Z,18.80
2022-12-04T22:33:12.329Z,18.47
2022-12-04T22:36:04.532Z,18.23
2022-12-04T22:39:11.139Z,19.73
2022-12-04T22:41:59.944Z,18.03
2022-12-04T22:44:48.583Z,18.90
2022-12-04T22:47:43.337Z,18.70
2022-12-04T22:50:35.828Z,19.37
2022-12-04T22:53:27.350Z,19.87
2022-12-04T22:56:17.165Z,17.17
2022-12-04T22:59:06.133Z,17.00
2022-12-04T23:02:02.470Z,18.73
2022-12-04T23:04:56.657Z,18.37
2022-12-04T23:07:48.630Z,17.87
2022-12-04T23:10:38.232Z,17.70
2022-12-04T23:13:26.829Z,17.47
2022-12-04T23:16:20.289Z,18.33
2022-12-04T23:19:11.578Z,18.47
2022-12-04T23:22:00.191Z,17.77
2022-12-04T23:24:50.246Z,18.93
2022-12-04T23:27:38.860Z,18.67
2022-12-04T23:30:36.656Z,17.50
2022-12-04T23:33:26.882Z,17.67
2022-12-04T23:36:17.307Z,18.63
2022-12-04T23:39:07.720Z,17.17
2022-12-04T23:42:00.201Z,17.37
2022-12-04T23:44:53.481Z,15.90
2022-12-04T23:47:43.562Z,17.40
2022-12-04T23:50:34.831Z,16.53
2022-12-04T23:53:28.085Z,16.63
2022-12-04T23:56:17.379Z,17.03
2022-12-04T23:59:07.540Z,16.80
